createdAt,value
2023-06-22T00:01:20.972Z,5.00
2023-06-22T00:03:48.035Z,3.60
2023-06-22T00:06:15.325Z,3.20
2023-06-22T00:08:42.370Z,3.60
2023-06-22T00:11:09.709Z,3.70
2023-06-22T00:13:36.676Z,3.80
2023-06-22T00:16:03.955Z,3.60
2023-06-22T00:18:31.991Z,3.70
2023-06-22T00:20:59.553Z,4.50
2023-06-22T00:23:27.196Z,3.70
2023-06-22T00:25:54.418Z,3.50
2023-06-22T00:28:21.554Z,3.60
2023-06-22T00:30:50.193Z,3.70
2023-06-22T00:33:17.721Z,3.40
2023-06-22T00:35:45.126Z,3.70
2023-06-22T00:38:13.413Z,3.60
2023-06-22T00:40:42.703Z,3.70
2023-06-22T00:43:09.897Z,3.20
2023-06-22T00:45:36.834Z,3.50
2023-06-22T00:48:04.363Z,3.90
2023-06-22T00:50:36.272Z,3.60
2023-06-22T00:53:10.566Z,3.30
2023-06-22T00:55:52.788Z,3.80
2023-06-22T00:58:23.140Z,4.00
2023-06-22T01:00:50.453Z,3.70
2023-06-22T01:03:18.437Z,3.70
2023-06-22T01:05:47.974Z,3.90
2023-06-22T01:08:48.788Z,3.70
2023-06-22T01:11:27.576Z,3.50
2023-06-22T01:14:34.204Z,3.40
2023-06-22T01:17:01.315Z,3.70
2023-06-22T01:19:45.078Z,3.60
2023-06-22T01:22:16.880Z,4.10
2023-06-22T01:24:56.353Z,3.20
2023-06-22T01:28:06.634Z,3.50
2023-06-22T01:30:35.006Z,3.10
2023-06-22T01:33:05.025Z,3.50
2023-06-22T01:35:32.093Z,3.60
2023-06-22T01:38:01.223Z,3.70
2023-06-22T01:40:28.389Z,3.50
2023-06-22T01:42:55.689Z,3.30
2023-06-22T01:45:22.698Z,3.70
2023-06-22T01:47:50.418Z,3.30
2023-06-22T01:50:18.453Z,3.50
2023-06-22T01:52:45.386Z,3.70
2023-06-22T01:55:12.364Z,3.40
2023-06-22T01:57:41.061Z,3.80
2023-06-22T02:00:11.018Z,3.30
2023-06-22T02:03:12.890Z,3.30
2023-06-22T02:05:51.235Z,3.80
2023-06-22T02:08:24.121Z,3.40
2023-06-22T02:10:52.285Z,3.40
2023-06-22T02:13:22.282Z,3.40
2023-06-22T02:15:49.461Z,3.70
2023-06-22T02:18:16.480Z,4.40
2023-06-22T02:20:43.592Z,3.30
2023-06-22T02:23:10.527Z,3.50
2023-06-22T02:25:37.621Z,3.40
2023-06-22T02:28:04.945Z,3.50
2023-06-22T02:30:33.070Z,3.40
2023-06-22T02:33:01.437Z,3.40
2023-06-22T02:35:32.808Z,3.50
2023-06-22T02:40:28.226Z,11.90
2023-06-22T02:42:59.282Z,15.40
2023-06-22T02:45:26.172Z,15.90
2023-06-22T02:47:53.607Z,17.90
2023-06-22T02:50:20.616Z,16.90
2023-06-22T02:52:47.975Z,17.00
2023-06-22T02:55:15.620Z,15.90
2023-06-22T02:57:45.627Z,12.40
2023-06-22T03:00:18.166Z,10.30
2023-06-22T03:02:50.225Z,8.70
2023-06-22T03:05:19.449Z,7.80
2023-06-22T03:07:47.259Z,6.90
2023-06-22T03:10:15.134Z,7.30
2023-06-22T03:12:43.015Z,6.20
2023-06-22T03:15:11.570Z,6.20
2023-06-22T03:17:42.349Z,6.00
2023-06-22T03:23:34.166Z,5.80
2023-06-22T03:26:01.319Z,4.70
2023-06-22T03:28:28.651Z,5.30
2023-06-22T03:30:56.199Z,4.70
2023-06-22T03:33:23.941Z,4.70
2023-06-22T03:35:51.562Z,4.60
2023-06-22T03:38:18.830Z,4.50
2023-06-22T03:40:45.956Z,5.10
2023-06-22T03:43:13.933Z,3.70
2023-06-22T03:45:41.609Z,3.10
2023-06-22T03:48:12.647Z,3.50
2023-06-22T03:50:40.053Z,3.80
2023-06-22T03:53:07.218Z,3.50
2023-06-22T03:55:35.504Z,3.30
2023-06-22T03:58:07.098Z,2.90
2023-06-22T04:00:34.436Z,2.70
2023-06-22T04:03:02.013Z,2.40
2023-06-22T04:05:30.155Z,2.40
2023-06-22T04:07:57.166Z,2.20
2023-06-22T04:10:25.897Z,2.50
2023-06-22T04:12:53.707Z,1.90
2023-06-22T04:15:21.653Z,2.10
2023-06-22T04:17:48.991Z,1.80
2023-06-22T04:20:16.281Z,2.20
2023-06-22T04:22:43.794Z,2.10
2023-06-22T04:25:10.886Z,2.00
2023-06-22T04:27:41.446Z,2.00
2023-06-22T04:30:09.145Z,1.90
2023-06-22T04:32:39.503Z,2.00
2023-06-22T04:35:08.015Z,2.00
2023-06-22T04:37:35.876Z,1.90
2023-06-22T04:40:04.892Z,1.80
2023-06-22T04:42:33.238Z,1.90
2023-06-22T04:45:02.063Z,2.30
2023-06-22T04:47:29.817Z,2.00
2023-06-22T04:49:56.985Z,1.80
2023-06-22T04:52:25.970Z,2.10
2023-06-22T04:54:58.956Z,2.40
2023-06-22T04:57:33.570Z,2.20
2023-06-22T05:00:13.799Z,2.00
2023-06-22T05:02:41.609Z,2.00
2023-06-22T05:05:09.433Z,2.10
2023-06-22T05:07:37.512Z,1.70
2023-06-22T05:10:05.673Z,2.10
2023-06-22T05:12:33.359Z,2.10
2023-06-22T05:15:00.528Z,2.50
2023-06-22T05:17:27.694Z,1.80
2023-06-22T05:19:55.013Z,1.90
2023-06-22T05:22:22.275Z,1.90
2023-06-22T05:24:49.641Z,1.70
2023-06-22T05:27:17.032Z,1.60
2023-06-22T05:29:44.208Z,1.80
2023-06-22T05:32:12.086Z,1.70
2023-06-22T05:34:39.785Z,1.50
2023-06-22T05:37:07.499Z,1.80
2023-06-22T05:39:34.845Z,2.00
2023-06-22T05:42:01.853Z,1.40
2023-06-22T05:44:29.253Z,1.50
2023-06-22T05:46:56.401Z,1.30
2023-06-22T05:49:24.401Z,1.70
2023-06-22T05:51:51.748Z,1.40
2023-06-22T05:54:19.214Z,1.60
2023-06-22T05:57:52.121Z,1.50
2023-06-22T06:00:20.293Z,1.60
2023-06-22T06:02:47.540Z,1.80
2023-06-22T06:05:15.649Z,1.60
2023-06-22T06:07:43.802Z,1.50
2023-06-22T06:10:11.228Z,1.30
2023-06-22T06:12:38.653Z,1.70
2023-06-22T06:15:10.226Z,1.50
2023-06-22T06:17:54.916Z,1.90
2023-06-22T06:20:24.167Z,1.80
2023-06-22T06:22:51.241Z,1.80
2023-06-22T06:25:19.767Z,1.60
2023-06-22T06:27:47.573Z,1.50
2023-06-22T06:30:16.075Z,1.80
2023-06-22T06:32:44.017Z,1.50
2023-06-22T06:35:12.350Z,1.60
2023-06-22T06:37:43.127Z,1.30
2023-06-22T06:40:14.117Z,1.40
2023-06-22T06:42:43.316Z,1.30
2023-06-22T06:45:11.602Z,1.60
2023-06-22T06:47:40.166Z,1.60
2023-06-22T06:50:08.590Z,1.20
2023-06-22T06:52:37.873Z,2.20
2023-06-22T06:55:10.191Z,1.50
2023-06-22T06:57:38.917Z,1.80
2023-06-22T07:00:11.227Z,1.50
2023-06-22T07:02:42.705Z,2.20
2023-06-22T07:05:10.903Z,1.60
2023-06-22T07:07:39.133Z,1.50
2023-06-22T07:10:07.344Z,1.70
2023-06-22T07:12:35.018Z,1.40
2023-06-22T07:15:04.693Z,1.40
2023-06-22T07:17:32.907Z,2.60
2023-06-22T07:20:00.083Z,2.40
2023-06-22T07:22:27.185Z,1.70
2023-06-22T07:24:54.814Z,2.00
2023-06-22T07:27:22.470Z,1.70
2023-06-22T07:29:49.723Z,1.60
2023-06-22T12:27:40.088Z,3.50
2023-06-22T12:30:07.646Z,3.70
2023-06-22T12:32:34.459Z,3.20
2023-06-22T12:35:01.232Z,3.60
2023-06-22T12:37:27.794Z,3.10
2023-06-22T12:39:55.437Z,6.70
2023-06-22T12:42:22.323Z,3.40
2023-06-22T12:44:48.591Z,3.20
2023-06-22T12:47:15.665Z,3.00
2023-06-22T12:49:42.332Z,3.60
2023-06-22T12:52:14.702Z,3.20
2023-06-22T12:54:54.054Z,3.80
2023-06-22T12:57:21.783Z,3.70
2023-06-22T12:59:48.243Z,3.30
2023-06-22T13:02:16.008Z,3.30
2023-06-22T13:04:43.737Z,3.60
2023-06-22T13:07:22.074Z,3.20
2023-06-22T13:09:54.384Z,3.20
2023-06-22T13:12:21.253Z,3.60
2023-06-22T13:14:48.652Z,3.20
2023-06-22T13:17:15.718Z,3.10
2023-06-22T13:19:42.465Z,3.20
2023-06-22T13:22:31.334Z,3.10
2023-06-22T13:24:58.409Z,3.30
2023-06-22T13:27:25.076Z,4.00
2023-06-22T13:29:51.929Z,3.10
2023-06-22T13:32:21.077Z,3.20
2023-06-22T13:34:47.822Z,6.10
2023-06-22T13:37:14.801Z,3.90
2023-06-22T13:39:42.651Z,3.40
2023-06-22T13:42:09.681Z,4.40
2023-06-22T13:44:36.678Z,3.90
2023-06-22T13:47:05.312Z,3.90
2023-06-22T13:49:31.823Z,4.00
2023-06-22T13:51:58.306Z,3.40
2023-06-22T13:54:30.170Z,4.80
2023-06-22T13:56:57.354Z,3.00
2023-06-22T13:59:24.257Z,3.30
2023-06-22T14:01:51.119Z,9.50
2023-06-22T14:04:18.169Z,3.60
2023-06-22T14:06:45.714Z,6.20
2023-06-22T14:09:12.412Z,3.70
2023-06-22T14:11:38.902Z,3.00
2023-06-22T14:14:06.083Z,3.80
2023-06-22T14:16:32.858Z,3.60
2023-06-22T14:18:59.554Z,4.10
2023-06-22T14:21:27.455Z,3.80
2023-06-22T14:23:54.108Z,3.00
2023-06-22T14:26:20.794Z,5.40
2023-06-22T14:28:48.880Z,3.60
2023-06-22T14:31:15.938Z,4.00
2023-06-22T14:33:51.549Z,3.30
2023-06-22T14:36:19.315Z,8.90
